sensor_id;sensor_type;location;lat;lon;timestamp;P1;durP1;ratioP1;P2;durP2;ratioP2
86099;SDS011;76724;47.496;19.064;2024-03-02T00:00:01;21.33;;;21.30;;
86099;SDS011;76724;47.496;19.064;2024-03-02T00:00:49;21.27;;;21.27;;
86099;SDS011;76724;47.496;19.064;2024-03-02T00:01:25;20.00;;;20.00;;
86099;SDS011;76724;47.496;19.064;2024-03-02T00:01:59;19.53;;;19.53;;
86099;SDS011;76724;47.496;19.064;2024-03-02T00:02:34;19.30;;;19.30;;
86099;SDS011;76724;47.496;19.064;2024-03-02T00:03:13;20.90;;;20.90;;
86099;SDS011;76724;47.496;19.064;2024-03-02T00:03:48;21.10;;;21.10;;
86099;SDS011;76724;47.496;19.064;2024-03-02T00:04:22;20.30;;;20.30;;
86099;SDS011;76724;47.496;19.064;2024-03-02T00:04:56;20.73;;;20.73;;
86099;SDS011;76724;47.496;19.064;2024-03-02T00:05:31;20.60;;;20.60;;
86099;SDS011;76724;47.496;19.064;2024-03-02T00:06:05;19.57;;;19.57;;
86099;SDS011;76724;47.496;19.064;2024-03-02T00:06:41;20.43;;;20.43;;
86099;SDS011;76724;47.496;19.064;2024-03-02T00:07:15;21.37;;;21.37;;
86099;SDS011;76724;47.496;19.064;2024-03-02T00:07:53;20.40;;;20.40;;
86099;SDS011;76724;47.496;19.064;2024-03-02T00:08:32;19.93;;;19.93;;
86099;SDS011;76724;47.496;19.064;2024-03-02T00:09:06;19.90;;;19.90;;
86099;SDS011;76724;47.496;19.064;2024-03-02T00:09:43;19.73;;;19.73;;
86099;SDS011;76724;47.496;19.064;2024-03-02T00:10:19;20.27;;;20.27;;
86099;SDS011;76724;47.496;19.064;2024-03-02T00:10:57;21.10;;;21.10;;
86099;SDS011;76724;47.496;19.064;2024-03-02T00:11:34;20.93;;;20.93;;
86099;SDS011;76724;47.496;19.064;2024-03-02T00:12:11;20.77;;;20.77;;
86099;SDS011;76724;47.496;19.064;2024-03-02T00:12:49;20.93;;;20.93;;
86099;SDS011;76724;47.496;19.064;2024-03-02T00:13:24;20.37;;;20.37;;
86099;SDS011;76724;47.496;19.064;2024-03-02T00:13:58;20.67;;;20.67;;
86099;SDS011;76724;47.496;19.064;2024-03-02T00:14:34;20.63;;;20.63;;
86099;SDS011;76724;47.496;19.064;2024-03-02T00:16:04;20.90;;;20.90;;
86099;SDS011;76724;47.496;19.064;2024-03-02T00:16:39;21.17;;;21.17;;
86099;SDS011;76724;47.496;19.064;2024-03-02T00:17:16;21.40;;;21.40;;
86099;SDS011;76724;47.496;19.064;2024-03-02T00:17:58;21.63;;;21.63;;
86099;SDS011;76724;47.496;19.064;2024-03-02T00:18:34;21.33;;;21.33;;
86099;SDS011;76724;47.496;19.064;2024-03-02T00:19:10;20.37;;;20.37;;
86099;SDS011;76724;47.496;19.064;2024-03-02T00:19:45;20.50;;;20.50;;
86099;SDS011;76724;47.496;19.064;2024-03-02T00:20:21;20.50;;;20.50;;
86099;SDS011;76724;47.496;19.064;2024-03-02T00:20:56;20.30;;;20.30;;
86099;SDS011;76724;47.496;19.064;2024-03-02T00:21:32;20.73;;;20.73;;
86099;SDS011;76724;47.496;19.064;2024-03-02T00:22:07;20.60;;;20.60;;
86099;SDS011;76724;47.496;19.064;2024-03-02T00:22:41;19.57;;;19.57;;
86099;SDS011;76724;47.496;19.064;2024-03-02T00:23:16;19.53;;;19.53;;
86099;SDS011;76724;47.496;19.064;2024-03-02T00:23:53;20.40;;;20.40;;
86099;SDS011;76724;47.496;19.064;2024-03-02T00:24:31;20.77;;;20.77;;
86099;SDS011;76724;47.496;19.064;2024-03-02T00:25:08;20.40;;;20.40;;
86099;SDS011;76724;47.496;19.064;2024-03-02T00:25:44;21.50;;;21.50;;
86099;SDS011;76724;47.496;19.064;2024-03-02T00:26:22;20.97;;;20.97;;
86099;SDS011;76724;47.496;19.064;2024-03-02T00:26:56;21.20;;;21.20;;
86099;SDS011;76724;47.496;19.064;2024-03-02T00:27:31;22.37;;;22.37;;
86099;SDS011;76724;47.496;19.064;2024-03-02T00:28:05;21.27;;;21.27;;
86099;SDS011;76724;47.496;19.064;2024-03-02T00:28:44;20.77;;;20.77;;
86099;SDS011;76724;47.496;19.064;2024-03-02T00:29:19;20.90;;;20.67;;
86099;SDS011;76724;47.496;19.064;2024-03-02T00:29:54;21.53;;;21.53;;
86099;SDS011;76724;47.496;19.064;2024-03-02T00:31:23;20.53;;;20.53;;
86099;SDS011;76724;47.496;19.064;2024-03-02T00:31:57;20.73;;;20.73;;
86099;SDS011;76724;47.496;19.064;2024-03-02T00:32:32;20.23;;;20.23;;
86099;SDS011;76724;47.496;19.064;2024-03-02T00:33:08;19.83;;;19.83;;
86099;SDS011;76724;47.496;19.064;2024-03-02T00:33:43;21.03;;;20.83;;
86099;SDS011;76724;47.496;19.064;2024-03-02T00:34:18;21.57;;;21.57;;
86099;SDS011;76724;47.496;19.064;2024-03-02T00:34:53;20.30;;;20.30;;
86099;SDS011;76724;47.496;19.064;2024-03-02T00:35:27;21.03;;;21.03;;
86099;SDS011;76724;47.496;19.064;2024-03-02T00:36:02;20.63;;;20.63;;
86099;SDS011;76724;47.496;19.064;2024-03-02T00:36:40;21.83;;;21.83;;
86099;SDS011;76724;47.496;19.064;2024-03-02T00:37:15;22.33;;;22.33;;
86099;SDS011;76724;47.496;19.064;2024-03-02T00:37:49;22.17;;;22.17;;
86099;SDS011;76724;47.496;19.064;2024-03-02T00:38:23;21.67;;;21.67;;
86099;SDS011;76724;47.496;19.064;2024-03-02T00:38:58;21.07;;;21.07;;
86099;SDS011;76724;47.496;19.064;2024-03-02T00:39:33;21.87;;;21.83;;
86099;SDS011;76724;47.496;19.064;2024-03-02T00:40:08;22.47;;;22.47;;
86099;SDS011;76724;47.496;19.064;2024-03-02T00:40:43;21.50;;;21.50;;
86099;SDS011;76724;47.496;19.064;2024-03-02T00:41:21;21.60;;;21.60;;
86099;SDS011;76724;47.496;19.064;2024-03-02T00:41:58;21.03;;;21.03;;
86099;SDS011;76724;47.496;19.064;2024-03-02T00:42:32;21.63;;;21.63;;
86099;SDS011;76724;47.496;19.064;2024-03-02T00:43:07;22.57;;;22.57;;
86099;SDS011;76724;47.496;19.064;2024-03-02T00:44:15;22.07;;;21.50;;
86099;SDS011;76724;47.496;19.064;2024-03-02T00:44:49;20.07;;;20.03;;
86099;SDS011;76724;47.496;19.064;2024-03-02T00:45:24;20.73;;;20.73;;
86099;SDS011;76724;47.496;19.064;2024-03-02T00:46:00;22.07;;;22.07;;
86099;SDS011;76724;47.496;19.064;2024-03-02T00:46:34;21.50;;;21.50;;
86099;SDS011;76724;47.496;19.064;2024-03-02T00:47:10;21.03;;;21.03;;
86099;SDS011;76724;47.496;19.064;2024-03-02T00:47:44;21.57;;;21.57;;
86099;SDS011;76724;47.496;19.064;2024-03-02T00:48:19;21.87;;;21.87;;
86099;SDS011;76724;47.496;19.064;2024-03-02T00:48:54;21.13;;;21.13;;
86099;SDS011;76724;47.496;19.064;2024-03-02T00:49:30;21.77;;;21.77;;
86099;SDS011;76724;47.496;19.064;2024-03-02T00:50:05;21.50;;;21.50;;
86099;SDS011;76724;47.496;19.064;2024-03-02T12:58:57;13.37;;;12.57;;
86099;SDS011;76724;47.496;19.064;2024-03-02T12:59:33;11.97;;;11.93;;
86099;SDS011;76724;47.496;19.064;2024-03-02T13:00:21;10.80;;;10.80;;
86099;SDS011;76724;47.496;19.064;2024-03-02T13:01:06;11.33;;;11.33;;
86099;SDS011;76724;47.496;19.064;2024-03-02T13:01:55;10.67;;;10.67;;
86099;SDS011;76724;47.496;19.064;2024-03-02T13:02:31;11.20;;;11.20;;
86099;SDS011;76724;47.496;19.064;2024-03-02T13:03:06;11.53;;;11.53;;
86099;SDS011;76724;47.496;19.064;2024-03-02T13:03:41;10.97;;;10.97;;
86099;SDS011;76724;47.496;19.064;2024-03-02T13:04:15;11.13;;;11.13;;
86099;SDS011;76724;47.496;19.064;2024-03-02T13:04:53;10.73;;;10.73;;
86099;SDS011;76724;47.496;19.064;2024-03-02T13:05:30;10.67;;;10.67;;
86099;SDS011;76724;47.496;19.064;2024-03-02T13:06:06;10.73;;;10.73;;
86099;SDS011;76724;47.496;19.064;2024-03-02T13:06:41;10.97;;;10.97;;
86099;SDS011;76724;47.496;19.064;2024-03-02T13:07:15;10.83;;;10.83;;
86099;SDS011;76724;47.496;19.064;2024-03-02T13:07:50;11.43;;;11.43;;
86099;SDS011;76724;47.496;19.064;2024-03-02T13:08:24;11.53;;;11.53;;
86099;SDS011;76724;47.496;19.064;2024-03-02T13:08:58;11.00;;;11.00;;
86099;SDS011;76724;47.496;19.064;2024-03-02T13:09:32;10.20;;;10.20;;
86099;SDS011;76724;47.496;19.064;2024-03-02T13:10:07;10.37;;;10.37;;
86099;SDS011;76724;47.496;19.064;2024-03-02T13:10:42;10.17;;;10.17;;
86099;SDS011;76724;47.496;19.064;2024-03-02T13:11:17;11.00;;;11.00;;
86099;SDS011;76724;47.496;19.064;2024-03-02T13:11:51;10.07;;;10.07;;
86099;SDS011;76724;47.496;19.064;2024-03-02T13:12:26;10.20;;;10.20;;
86099;SDS011;76724;47.496;19.064;2024-03-02T13:13:01;10.97;;;10.97;;
86099;SDS011;76724;47.496;19.064;2024-03-02T13:13:35;10.10;;;10.10;;
86099;SDS011;76724;47.496;19.064;2024-03-02T13:14:10;9.67;;;9.67;;
86099;SDS011;76724;47.496;19.064;2024-03-02T13:14:47;10.60;;;10.60;;
86099;SDS011;76724;47.496;19.064;2024-03-02T13:15:23;11.40;;;11.40;;
86099;SDS011;76724;47.496;19.064;2024-03-02T13:15:57;10.47;;;10.47;;
86099;SDS011;76724;47.496;19.064;2024-03-02T13:16:37;10.67;;;10.67;;
86099;SDS011;76724;47.496;19.064;2024-03-02T13:17:13;10.50;;;10.50;;
86099;SDS011;76724;47.496;19.064;2024-03-02T13:17:48;10.07;;;10.07;;
86099;SDS011;76724;47.496;19.064;2024-03-02T13:18:23;11.17;;;11.17;;
86099;SDS011;76724;47.496;19.064;2024-03-02T13:18:57;10.20;;;10.20;;
86099;SDS011;76724;47.496;19.064;2024-03-02T13:19:31;10.13;;;10.13;;
86099;SDS011;76724;47.496;19.064;2024-03-02T13:20:06;10.73;;;10.73;;
86099;SDS011;76724;47.496;19.064;2024-03-02T13:20:44;10.90;;;10.90;;
86099;SDS011;76724;47.496;19.064;2024-03-02T13:21:18;10.87;;;10.87;;
86099;SDS011;76724;47.496;19.064;2024-03-02T13:21:53;10.50;;;10.50;;
86099;SDS011;76724;47.496;19.064;2024-03-02T13:22:27;10.70;;;10.70;;
86099;SDS011;76724;47.496;19.064;2024-03-02T13:23:02;9.97;;;9.97;;
86099;SDS011;76724;47.496;19.064;2024-03-02T13:23:36;10.37;;;10.37;;
86099;SDS011;76724;47.496;19.064;2024-03-02T13:24:10;10.77;;;10.77;;
86099;SDS011;76724;47.496;19.064;2024-03-02T13:24:45;10.10;;;10.10;;
86099;SDS011;76724;47.496;19.064;2024-03-02T13:25:19;9.67;;;9.67;;
86099;SDS011;76724;47.496;19.064;2024-03-02T13:25:53;10.13;;;10.13;;
86099;SDS011;76724;47.496;19.064;2024-03-02T13:26:27;10.50;;;10.50;;
86099;SDS011;76724;47.496;19.064;2024-03-02T13:27:01;10.80;;;10.80;;
86099;SDS011;76724;47.496;19.064;2024-03-02T13:27:37;9.90;;;9.90;;
86099;SDS011;76724;47.496;19.064;2024-03-02T13:28:11;9.93;;;9.93;;
86099;SDS011;76724;47.496;19.064;2024-03-02T13:28:46;9.83;;;9.83;;
86099;SDS011;76724;47.496;19.064;2024-03-02T13:29:21;10.20;;;10.20;;
86099;SDS011;76724;47.496;19.064;2024-03-02T13:29:55;10.60;;;10.60;;
86099;SDS011;76724;47.496;19.064;2024-03-02T13:30:29;9.83;;;9.83;;
86099;SDS011;76724;47.496;19.064;2024-03-02T13:31:04;10.30;;;10.30;;
86099;SDS011;76724;47.496;19.064;2024-03-02T13:31:38;10.53;;;10.53;;
86099;SDS011;76724;47.496;19.064;2024-03-02T13:32:16;10.13;;;10.13;;
86099;SDS011;76724;47.496;19.064;2024-03-02T13:32:50;10.73;;;10.73;;
86099;SDS011;76724;47.496;19.064;2024-03-02T13:33:25;10.60;;;10.60;;
86099;SDS011;76724;47.496;19.064;2024-03-02T13:33:59;10.60;;;10.60;;
86099;SDS011;76724;47.496;19.064;2024-03-02T13:34:34;10.37;;;10.37;;
86099;SDS011;76724;47.496;19.064;2024-03-02T13:35:08;10.07;;;10.07;;
86099;SDS011;76724;47.496;19.064;2024-03-02T13:35:45;10.03;;;10.03;;
86099;SDS011;76724;47.496;19.064;2024-03-02T13:36:19;10.40;;;10.40;;
86099;SDS011;76724;47.496;19.064;2024-03-02T13:36:53;9.83;;;9.83;;
86099;SDS011;76724;47.496;19.064;2024-03-02T13:37:27;9.67;;;9.67;;
86099;SDS011;76724;47.496;19.064;2024-03-02T13:38:02;9.97;;;9.97;;
86099;SDS011;76724;47.496;19.064;2024-03-02T13:38:36;9.57;;;9.57;;
86099;SDS011;76724;47.496;19.064;2024-03-02T13:39:11;10.00;;;10.00;;
86099;SDS011;76724;47.496;19.064;2024-03-02T13:39:49;10.57;;;10.57;;
86099;SDS011;76724;47.496;19.064;2024-03-02T13:40:23;10.07;;;10.07;;
86099;SDS011;76724;47.496;19.064;2024-03-02T13:40:58;10.27;;;10.27;;
86099;SDS011;76724;47.496;19.064;2024-03-02T13:41:34;9.13;;;9.13;;
86099;SDS011;76724;47.496;19.064;2024-03-02T13:42:10;9.47;;;9.47;;
86099;SDS011;76724;47.496;19.064;2024-03-02T13:42:44;10.33;;;10.33;;
86099;SDS011;76724;47.496;19.064;2024-03-02T13:43:20;10.73;;;10.73;;
86099;SDS011;76724;47.496;19.064;2024-03-02T13:43:54;9.63;;;9.63;;
86099;SDS011;76724;47.496;19.064;2024-03-02T13:44:28;9.27;;;9.27;;
86099;SDS011;76724;47.496;19.064;2024-03-02T13:45:02;9.47;;;9.47;;
86099;SDS011;76724;47.496;19.064;2024-03-02T13:45:39;9.80;;;9.80;;
86099;SDS011;76724;47.496;19.064;2024-03-02T13:46:13;9.93;;;9.93;;
86099;SDS011;76724;47.496;19.064;2024-03-02T13:46:47;10.23;;;10.23;;
86099;SDS011;76724;47.496;19.064;2024-03-02T13:47:22;9.60;;;9.60;;
86099;SDS011;76724;47.496;19.064;2024-03-02T13:47:56;9.17;;;9.17;;
86099;SDS011;76724;47.496;19.064;2024-03-02T13:48:30;9.87;;;9.87;;
86099;SDS011;76724;47.496;19.064;2024-03-02T13:49:04;9.80;;;9.80;;
86099;SDS011;76724;47.496;19.064;2024-03-02T13:49:39;9.63;;;9.63;;
86099;SDS011;76724;47.496;19.064;2024-03-02T13:50:17;10.50;;;10.50;;
86099;SDS011;76724;47.496;19.064;2024-03-02T13:50:51;10.30;;;10.30;;
86099;SDS011;76724;47.496;19.064;2024-03-02T13:51:29;9.63;;;9.63;;
86099;SDS011;76724;47.496;19.064;2024-03-02T13:52:03;9.90;;;9.90;;
86099;SDS011;76724;47.496;19.064;2024-03-02T13:52:44;9.90;;;9.90;;
86099;SDS011;76724;47.496;19.064;2024-03-02T13:53:18;9.77;;;9.77;;
86099;SDS011;76724;47.496;19.064;2024-03-02T13:53:53;10.13;;;10.13;;
86099;SDS011;76724;47.496;19.064;2024-03-02T13:54:27;9.63;;;9.63;;
86099;SDS011;76724;47.496;19.064;2024-03-02T13:55:01;9.47;;;9.47;;
86099;SDS011;76724;47.496;19.064;2024-03-02T13:55:37;9.97;;;9.97;;
86099;SDS011;76724;47.496;19.064;2024-03-02T13:56:11;9.40;;;9.40;;
86099;SDS011;76724;47.496;19.064;2024-03-02T13:56:45;9.27;;;9.27;;
86099;SDS011;76724;47.496;19.064;2024-03-02T13:57:20;9.23;;;9.23;;
86099;SDS011;76724;47.496;19.064;2024-03-02T13:57:59;10.10;;;10.10;;
86099;SDS011;76724;47.496;19.064;2024-03-02T13:58:34;10.53;;;10.53;;
86099;SDS011;76724;47.496;19.064;2024-03-02T13:59:08;9.70;;;9.70;;
86099;SDS011;76724;47.496;19.064;2024-03-02T13:59:43;9.97;;;9.97;;
86099;SDS011;76724;47.496;19.064;2024-03-02T14:00:18;9.07;;;9.07;;
86099;SDS011;76724;47.496;19.064;2024-03-02T14:00:53;9.83;;;9.83;;
86099;SDS011;76724;47.496;19.064;2024-03-02T14:01:28;9.63;;;9.63;;
86099;SDS011;76724;47.496;19.064;2024-03-02T14:02:02;9.43;;;9.43;;
86099;SDS011;76724;47.496;19.064;2024-03-02T14:02:38;9.67;;;9.67;;
86099;SDS011;76724;47.496;19.064;2024-03-02T14:03:13;9.30;;;9.30;;
86099;SDS011;76724;47.496;19.064;2024-03-02T14:03:48;9.90;;;9.90;;
86099;SDS011;76724;47.496;19.064;2024-03-02T14:04:22;9.40;;;9.40;;
86099;SDS011;76724;47.496;19.064;2024-03-02T14:04:57;9.83;;;9.83;;
86099;SDS011;76724;47.496;19.064;2024-03-02T14:05:31;9.57;;;9.57;;
86099;SDS011;76724;47.496;19.064;2024-03-02T14:06:06;9.97;;;9.97;;
86099;SDS011;76724;47.496;19.064;2024-03-02T14:06:42;10.20;;;10.20;;
86099;SDS011;76724;47.496;19.064;2024-03-02T14:07:17;9.53;;;9.53;;
86099;SDS011;76724;47.496;19.064;2024-03-02T14:07:51;9.80;;;9.80;;
86099;SDS011;76724;47.496;19.064;2024-03-02T14:08:25;9.43;;;9.43;;
86099;SDS011;76724;47.496;19.064;2024-03-02T14:09:00;9.90;;;9.90;;
86099;SDS011;76724;47.496;19.064;2024-03-02T14:09:34;9.90;;;9.90;;
86099;SDS011;76724;47.496;19.064;2024-03-02T14:10:09;9.67;;;9.67;;
86099;SDS011;76724;47.496;19.064;2024-03-02T14:10:44;9.13;;;9.13;;
86099;SDS011;76724;47.496;19.064;2024-03-02T14:11:18;8.53;;;8.53;;
86099;SDS011;76724;47.496;19.064;2024-03-02T14:11:53;9.47;;;9.47;;
86099;SDS011;76724;47.496;19.064;2024-03-02T14:12:28;8.87;;;8.87;;
86099;SDS011;76724;47.496;19.064;2024-03-02T14:13:02;8.60;;;8.60;;
86099;SDS011;76724;47.496;19.064;2024-03-02T14:13:36;9.30;;;9.30;;
86099;SDS011;76724;47.496;19.064;2024-03-02T14:14:11;8.70;;;8.70;;
86099;SDS011;76724;47.496;19.064;2024-03-02T14:14:45;9.17;;;9.17;;
86099;SDS011;76724;47.496;19.064;2024-03-02T14:15:19;9.63;;;9.63;;
86099;SDS011;76724;47.496;19.064;2024-03-02T14:15:54;10.10;;;10.10;;
86099;SDS011;76724;47.496;19.064;2024-03-02T14:16:29;10.07;;;10.07;;
86099;SDS011;76724;47.496;19.064;2024-03-02T14:17:03;9.70;;;9.70;;
86099;SDS011;76724;47.496;19.064;2024-03-02T14:17:39;10.20;;;10.20;;
86099;SDS011;76724;47.496;19.064;2024-03-02T14:18:14;10.47;;;10.47;;
86099;SDS011;76724;47.496;19.064;2024-03-02T14:18:48;10.13;;;10.13;;
86099;SDS011;76724;47.496;19.064;2024-03-02T14:19:23;9.87;;;9.87;;
86099;SDS011;76724;47.496;19.064;2024-03-02T14:19:58;10.10;;;10.10;;
86099;SDS011;76724;47.496;19.064;2024-03-02T14:20:33;9.67;;;9.67;;
86099;SDS011;76724;47.496;19.064;2024-03-02T14:21:07;9.33;;;9.33;;
86099;SDS011;76724;47.496;19.064;2024-03-02T14:21:42;9.60;;;9.60;;
86099;SDS011;76724;47.496;19.064;2024-03-02T14:22:16;10.50;;;10.50;;
86099;SDS011;76724;47.496;19.064;2024-03-02T14:22:51;9.90;;;9.90;;
86099;SDS011;76724;47.496;19.064;2024-03-02T14:23:25;9.80;;;9.80;;
86099;SDS011;76724;47.496;19.064;2024-03-02T14:23:59;10.30;;;10.30;;
86099;SDS011;76724;47.496;19.064;2024-03-02T14:24:33;9.77;;;9.77;;
86099;SDS011;76724;47.496;19.064;2024-03-02T14:25:08;9.23;;;9.23;;
86099;SDS011;76724;47.496;19.064;2024-03-02T14:25:42;9.30;;;9.30;;
86099;SDS011;76724;47.496;19.064;2024-03-02T14:26:17;9.07;;;9.07;;
86099;SDS011;76724;47.496;19.064;2024-03-02T14:26:52;9.53;;;9.53;;
86099;SDS011;76724;47.496;19.064;2024-03-02T14:27:35;9.40;;;9.40;;
86099;SDS011;76724;47.496;19.064;2024-03-02T14:28:30;10.03;;;10.03;;
86099;SDS011;76724;47.496;19.064;2024-03-02T14:29:23;10.07;;;10.07;;
86099;SDS011;76724;47.496;19.064;2024-03-02T14:29:58;9.60;;;9.60;;
86099;SDS011;76724;47.496;19.064;2024-03-02T14:30:32;9.17;;;9.17;;
86099;SDS011;76724;47.496;19.064;2024-03-02T14:31:07;9.37;;;9.37;;
86099;SDS011;76724;47.496;19.064;2024-03-02T14:31:42;10.37;;;10.37;;
86099;SDS011;76724;47.496;19.064;2024-03-02T14:32:16;9.57;;;9.57;;
86099;SDS011;76724;47.496;19.064;2024-03-02T14:32:50;9.67;;;9.67;;
86099;SDS011;76724;47.496;19.064;2024-03-02T14:33:24;9.43;;;9.43;;
86099;SDS011;76724;47.496;19.064;2024-03-02T14:33:59;9.43;;;9.43;;
86099;SDS011;76724;47.496;19.064;2024-03-02T14:34:34;8.80;;;8.80;;
86099;SDS011;76724;47.496;19.064;2024-03-02T14:35:10;8.93;;;8.93;;
86099;SDS011;76724;47.496;19.064;2024-03-02T14:35:45;9.13;;;9.13;;
86099;SDS011;76724;47.496;19.064;2024-03-02T14:36:19;9.40;;;9.40;;
86099;SDS011;76724;47.496;19.064;2024-03-02T14:36:54;9.90;;;9.90;;
86099;SDS011;76724;47.496;19.064;2024-03-02T14:37:29;10.37;;;10.37;;
86099;SDS011;76724;47.496;19.064;2024-03-02T14:38:03;9.67;;;9.67;;
86099;SDS011;76724;47.496;19.064;2024-03-02T14:38:37;10.13;;;10.13;;
86099;SDS011;76724;47.496;19.064;2024-03-02T14:39:12;9.13;;;9.13;;
86099;SDS011;76724;47.496;19.064;2024-03-02T14:39:47;9.77;;;9.77;;
86099;SDS011;76724;47.496;19.064;2024-03-02T14:40:21;10.13;;;10.13;;
86099;SDS011;76724;47.496;19.064;2024-03-02T14:40:56;9.77;;;9.77;;
86099;SDS011;76724;47.496;19.064;2024-03-02T14:41:30;9.83;;;9.83;;
86099;SDS011;76724;47.496;19.064;2024-03-02T14:42:04;9.23;;;9.23;;
86099;SDS011;76724;47.496;19.064;2024-03-02T14:42:39;9.37;;;9.37;;
86099;SDS011;76724;47.496;19.064;2024-03-02T14:43:13;9.70;;;9.70;;
86099;SDS011;76724;47.496;19.064;2024-03-02T14:43:48;9.40;;;9.37;;
86099;SDS011;76724;47.496;19.064;2024-03-02T14:44:23;8.97;;;8.97;;
86099;SDS011;76724;47.496;19.064;2024-03-02T14:44:57;9.57;;;9.57;;
86099;SDS011;76724;47.496;19.064;2024-03-02T14:45:32;9.57;;;9.57;;
86099;SDS011;76724;47.496;19.064;2024-03-02T14:46:06;9.17;;;9.17;;
86099;SDS011;76724;47.496;19.064;2024-03-02T14:46:46;9.30;;;9.30;;
86099;SDS011;76724;47.496;19.064;2024-03-02T14:47:21;9.90;;;9.90;;
86099;SDS011;76724;47.496;19.064;2024-03-02T14:47:56;9.97;;;9.97;;
86099;SDS011;76724;47.496;19.064;2024-03-02T14:48:34;9.03;;;9.03;;
86099;SDS011;76724;47.496;19.064;2024-03-02T14:49:09;8.50;;;8.50;;
86099;SDS011;76724;47.496;19.064;2024-03-02T14:49:44;8.47;;;8.47;;
86099;SDS011;76724;47.496;19.064;2024-03-02T14:50:18;9.03;;;9.03;;
86099;SDS011;76724;47.496;19.064;2024-03-02T14:50:53;9.00;;;9.00;;
86099;SDS011;76724;47.496;19.064;2024-03-02T14:51:27;9.27;;;9.27;;
86099;SDS011;76724;47.496;19.064;2024-03-02T14:52:04;9.67;;;9.67;;
86099;SDS011;76724;47.496;19.064;2024-03-02T14:52:38;9.43;;;9.43;;
86099;SDS011;76724;47.496;19.064;2024-03-02T14:53:14;9.80;;;9.80;;
86099;SDS011;76724;47.496;19.064;2024-03-02T14:53:48;9.87;;;9.87;;
86099;SDS011;76724;47.496;19.064;2024-03-02T14:54:24;9.50;;;9.50;;
86099;SDS011;76724;47.496;19.064;2024-03-02T14:54:58;9.57;;;9.57;;
86099;SDS011;76724;47.496;19.064;2024-03-02T14:55:33;9.93;;;9.93;;
86099;SDS011;76724;47.496;19.064;2024-03-02T14:56:07;9.30;;;9.30;;
86099;SDS011;76724;47.496;19.064;2024-03-02T14:56:42;9.50;;;9.50;;
86099;SDS011;76724;47.496;19.064;2024-03-02T14:57:16;9.37;;;9.37;;
86099;SDS011;76724;47.496;19.064;2024-03-02T14:57:51;9.57;;;9.57;;
86099;SDS011;76724;47.496;19.064;2024-03-02T14:58:25;9.67;;;9.67;;
86099;SDS011;76724;47.496;19.064;2024-03-02T14:59:00;9.80;;;9.80;;
86099;SDS011;76724;47.496;19.064;2024-03-02T14:59:34;9.20;;;9.20;;
86099;SDS011;76724;47.496;19.064;2024-03-02T15:00:09;8.63;;;8.63;;
86099;SDS011;76724;47.496;19.064;2024-03-02T15:00:45;8.97;;;8.97;;
86099;SDS011;76724;47.496;19.064;2024-03-02T15:01:19;9.37;;;9.37;;
86099;SDS011;76724;47.496;19.064;2024-03-02T15:01:57;9.50;;;9.50;;
86099;SDS011;76724;47.496;19.064;2024-03-02T15:02:31;9.03;;;9.03;;
86099;SDS011;76724;47.496;19.064;2024-03-02T15:03:05;9.30;;;9.30;;
86099;SDS011;76724;47.496;19.064;2024-03-02T15:03:42;9.13;;;9.13;;
86099;SDS011;76724;47.496;19.064;2024-03-02T15:04:16;9.33;;;9.33;;
86099;SDS011;76724;47.496;19.064;2024-03-02T15:04:55;9.53;;;9.53;;
86099;SDS011;76724;47.496;19.064;2024-03-02T15:05:29;10.13;;;10.13;;
86099;SDS011;76724;47.496;19.064;2024-03-02T15:06:03;9.37;;;9.37;;
86099;SDS011;76724;47.496;19.064;2024-03-02T15:06:38;9.53;;;9.53;;
86099;SDS011;76724;47.496;19.064;2024-03-02T15:07:13;9.47;;;9.47;;
86099;SDS011;76724;47.496;19.064;2024-03-02T15:07:48;9.73;;;9.73;;
86099;SDS011;76724;47.496;19.064;2024-03-02T15:08:23;9.57;;;9.57;;
86099;SDS011;76724;47.496;19.064;2024-03-02T15:08:57;9.30;;;9.30;;
86099;SDS011;76724;47.496;19.064;2024-03-02T15:09:31;9.97;;;9.97;;
86099;SDS011;76724;47.496;19.064;2024-03-02T15:10:08;9.50;;;9.50;;
86099;SDS011;76724;47.496;19.064;2024-03-02T15:10:43;9.63;;;9.63;;
86099;SDS011;76724;47.496;19.064;2024-03-02T15:11:19;9.37;;;9.37;;
86099;SDS011;76724;47.496;19.064;2024-03-02T15:11:53;9.43;;;9.43;;
86099;SDS011;76724;47.496;19.064;2024-03-02T15:12:27;9.00;;;9.00;;
86099;SDS011;76724;47.496;19.064;2024-03-02T15:13:02;9.23;;;9.23;;
86099;SDS011;76724;47.496;19.064;2024-03-02T15:13:37;9.70;;;9.70;;
86099;SDS011;76724;47.496;19.064;2024-03-02T15:14:11;10.07;;;10.07;;
86099;SDS011;76724;47.496;19.064;2024-03-02T15:14:46;9.83;;;9.83;;
86099;SDS011;76724;47.496;19.064;2024-03-02T15:15:21;9.33;;;9.33;;
86099;SDS011;76724;47.496;19.064;2024-03-02T15:15:56;10.27;;;10.27;;
86099;SDS011;76724;47.496;19.064;2024-03-02T15:16:30;9.33;;;9.33;;
86099;SDS011;76724;47.496;19.064;2024-03-02T15:17:05;9.93;;;9.93;;
86099;SDS011;76724;47.496;19.064;2024-03-02T15:17:40;9.40;;;9.40;;
86099;SDS011;76724;47.496;19.064;2024-03-02T15:18:14;9.43;;;9.43;;
86099;SDS011;76724;47.496;19.064;2024-03-02T15:18:48;9.73;;;9.73;;
86099;SDS011;76724;47.496;19.064;2024-03-02T15:19:23;9.80;;;9.80;;
86099;SDS011;76724;47.496;19.064;2024-03-02T15:19:57;9.33;;;9.33;;
86099;SDS011;76724;47.496;19.064;2024-03-02T15:20:32;8.73;;;8.73;;
86099;SDS011;76724;47.496;19.064;2024-03-02T15:21:06;9.33;;;9.33;;
86099;SDS011;76724;47.496;19.064;2024-03-02T15:21:41;9.43;;;9.43;;
86099;SDS011;76724;47.496;19.064;2024-03-02T15:22:15;9.10;;;9.10;;
86099;SDS011;76724;47.496;19.064;2024-03-02T15:22:50;9.40;;;9.40;;
86099;SDS011;76724;47.496;19.064;2024-03-02T15:23:24;9.57;;;9.57;;
86099;SDS011;76724;47.496;19.064;2024-03-02T15:23:58;9.07;;;9.07;;
86099;SDS011;76724;47.496;19.064;2024-03-02T15:24:32;9.63;;;9.63;;
86099;SDS011;76724;47.496;19.064;2024-03-02T15:25:07;10.23;;;10.23;;
86099;SDS011;76724;47.496;19.064;2024-03-02T15:25:42;9.77;;;9.77;;
86099;SDS011;76724;47.496;19.064;2024-03-02T15:26:16;10.03;;;10.03;;
86099;SDS011;76724;47.496;19.064;2024-03-02T15:26:51;10.13;;;10.13;;
86099;SDS011;76724;47.496;19.064;2024-03-02T15:27:26;9.20;;;9.20;;
86099;SDS011;76724;47.496;19.064;2024-03-02T15:28:01;8.93;;;8.93;;
86099;SDS011;76724;47.496;19.064;2024-03-02T15:28:35;8.47;;;8.47;;
86099;SDS011;76724;47.496;19.064;2024-03-02T15:29:09;9.17;;;9.17;;
86099;SDS011;76724;47.496;19.064;2024-03-02T15:29:44;8.97;;;8.97;;
86099;SDS011;76724;47.496;19.064;2024-03-02T15:30:18;9.73;;;9.73;;
86099;SDS011;76724;47.496;19.064;2024-03-02T15:30:52;9.33;;;9.33;;
86099;SDS011;76724;47.496;19.064;2024-03-02T15:31:29;9.60;;;9.60;;
86099;SDS011;76724;47.496;19.064;2024-03-02T15:32:03;9.87;;;9.87;;
86099;SDS011;76724;47.496;19.064;2024-03-02T15:32:40;9.57;;;9.57;;
86099;SDS011;76724;47.496;19.064;2024-03-02T15:33:15;9.60;;;9.60;;
86099;SDS011;76724;47.496;19.064;2024-03-02T15:33:51;10.07;;;10.07;;
86099;SDS011;76724;47.496;19.064;2024-03-02T15:34:27;9.80;;;9.80;;
86099;SDS011;76724;47.496;19.064;2024-03-02T15:35:02;9.23;;;9.23;;
86099;SDS011;76724;47.496;19.064;2024-03-02T15:35:38;9.43;;;9.43;;
86099;SDS011;76724;47.496;19.064;2024-03-02T15:36:12;9.60;;;9.60;;
86099;SDS011;76724;47.496;19.064;2024-03-02T15:36:47;9.50;;;9.50;;